createdAt,value
2017-07-26T00:00:20.607Z,15.36
2017-07-26T00:01:20.603Z,15.35
2017-07-26T00:02:20.607Z,15.32
2017-07-26T00:03:20.610Z,15.32
2017-07-26T00:04:20.623Z,15.32
2017-07-26T00:05:20.639Z,15.33
2017-07-26T00:06:20.619Z,15.33
2017-07-26T00:07:20.620Z,15.33
2017-07-26T00:08:20.624Z,15.32
2017-07-26T00:09:20.631Z,15.33
2017-07-26T00:10:20.629Z,15.31
2017-07-26T00:11:20.633Z,15.31
2017-07-26T00:12:20.635Z,15.30
2017-07-26T00:13:20.638Z,15.33
2017-07-26T00:14:20.642Z,15.36
2017-07-26T00:15:20.654Z,15.34
2017-07-26T00:16:20.648Z,15.33
2017-07-26T00:17:20.653Z,15.32
2017-07-26T00:18:20.656Z,15.30
2017-07-26T00:19:20.659Z,15.29
2017-07-26T00:20:20.658Z,15.27
2017-07-26T00:21:20.664Z,15.25
2017-07-26T00:22:20.670Z,15.23
2017-07-26T00:23:20.677Z,15.23
2017-07-26T00:24:20.671Z,15.25
2017-07-26T00:25:20.675Z,15.25
2017-07-26T00:26:20.675Z,15.30
2017-07-26T00:27:20.679Z,15.29
2017-07-26T00:28:20.681Z,15.29
2017-07-26T00:29:20.679Z,15.32
2017-07-26T00:30:20.688Z,15.28
2017-07-26T00:31:20.685Z,15.27
2017-07-26T00:32:20.694Z,15.26
2017-07-26T00:33:20.694Z,15.25
2017-07-26T00:34:20.698Z,15.26
2017-07-26T00:35:20.709Z,15.26
2017-07-26T00:36:20.702Z,15.26
2017-07-26T00:37:20.706Z,15.31
2017-07-26T00:38:20.710Z,15.27
2017-07-26T00:39:20.711Z,15.27
2017-07-26T00:40:20.716Z,15.25
2017-07-26T00:41:20.718Z,15.26
2017-07-26T00:42:20.723Z,15.25
2017-07-26T00:43:20.722Z,15.24
2017-07-26T00:44:20.725Z,15.25
2017-07-26T00:45:20.735Z,15.24
2017-07-26T00:46:20.732Z,15.23
2017-07-26T00:47:20.734Z,15.20
2017-07-26T00:48:20.740Z,15.17
2017-07-26T00:49:20.747Z,15.14
2017-07-26T00:50:20.744Z,15.15
2017-07-26T00:51:20.746Z,15.18
2017-07-26T00:52:20.751Z,15.18
2017-07-26T00:53:20.758Z,15.15
2017-07-26T00:54:20.757Z,15.15
2017-07-26T00:55:20.761Z,15.15
2017-07-26T00:56:20.768Z,15.15
2017-07-26T00:57:20.764Z,15.15
2017-07-26T00:58:20.771Z,15.14
2017-07-26T00:59:20.770Z,15.14
2017-07-26T01:02:34.135Z,15.17
2017-07-26T01:02:35.426Z,15.16
2017-07-26T01:02:36.133Z,15.14
2017-07-26T01:05:56.151Z,15.13
2017-07-26T01:06:00.377Z,15.16
2017-07-26T01:06:01.086Z,15.15
2017-07-26T01:09:04.293Z,15.12
2017-07-26T01:09:05.585Z,15.14
2017-07-26T01:09:06.286Z,15.15
2017-07-26T01:11:45.135Z,15.14
2017-07-26T01:11:46.572Z,15.16
2017-07-26T01:11:47.181Z,15.15
2017-07-26T01:14:58.273Z,15.17
2017-07-26T01:14:59.116Z,15.16
2017-07-26T01:14:59.732Z,15.16
2017-07-26T01:17:43.159Z,15.13
2017-07-26T01:17:44.386Z,15.08
2017-07-26T01:17:45.082Z,15.08
2017-07-26T01:21:03.138Z,15.07
2017-07-26T01:21:04.295Z,15.06
2017-07-26T01:21:04.903Z,15.05
2017-07-26T01:23:42.098Z,15.04
2017-07-26T01:23:43.498Z,15.05
2017-07-26T01:23:44.201Z,15.06
2017-07-26T01:26:29.137Z,15.08
2017-07-26T01:26:29.962Z,15.06
2017-07-26T01:26:30.569Z,15.05
2017-07-26T01:29:47.025Z,15.08
2017-07-26T01:29:48.111Z,15.08
2017-07-26T01:29:48.835Z,15.09
2017-07-26T01:32:34.098Z,15.06
2017-07-26T01:32:35.155Z,15.05
2017-07-26T01:32:35.760Z,15.05
2017-07-26T01:35:52.143Z,15.07
2017-07-26T01:35:53.232Z,15.05
2017-07-26T01:35:53.835Z,15.04
2017-07-26T01:39:05.409Z,15.00
2017-07-26T01:39:06.853Z,15.01
2017-07-26T01:39:08.166Z,15.01
2017-07-26T01:41:57.073Z,14.98
2017-07-26T01:41:58.490Z,15.00
2017-07-26T01:41:59.096Z,15.00
2017-07-26T01:45:05.002Z,15.02
2017-07-26T01:45:06.073Z,15.01
2017-07-26T01:45:07.312Z,15.01
2017-07-26T01:47:53.059Z,15.04
2017-07-26T01:47:54.248Z,15.04
2017-07-26T01:47:54.856Z,15.01
2017-07-26T01:51:07.157Z,14.99
2017-07-26T01:51:08.639Z,14.98
2017-07-26T01:51:10.024Z,14.99
2017-07-26T01:53:58.142Z,14.95
2017-07-26T01:53:59.416Z,14.96
2017-07-26T01:54:00.122Z,14.96
2017-07-26T01:56:29.350Z,14.98
2017-07-26T01:56:30.465Z,14.95
2017-07-26T01:56:31.072Z,14.94
2017-07-26T01:59:42.994Z,14.92
2017-07-26T01:59:43.972Z,14.92
2017-07-26T01:59:44.778Z,14.95
2017-07-26T02:00:20.945Z,14.93
2017-07-26T02:01:20.948Z,14.91
2017-07-26T02:02:20.949Z,14.89
2017-07-26T02:03:20.962Z,14.89
2017-07-26T02:04:20.957Z,14.91
2017-07-26T02:05:20.959Z,14.88
2017-07-26T02:06:20.961Z,14.88
2017-07-26T02:07:20.964Z,14.86
2017-07-26T02:08:20.970Z,14.86
2017-07-26T02:09:20.976Z,14.83
2017-07-26T02:10:20.971Z,14.82
2017-07-26T02:11:20.976Z,14.82
2017-07-26T02:12:20.983Z,14.82
2017-07-26T02:13:20.984Z,14.82
2017-07-26T02:14:20.984Z,14.81
2017-07-26T02:15:20.988Z,14.80
2017-07-26T02:16:20.992Z,14.77
2017-07-26T02:17:20.993Z,14.76
2017-07-26T02:18:21.005Z,14.73
2017-07-26T02:19:20.998Z,14.72
2017-07-26T02:20:21.001Z,14.70
2017-07-26T02:21:21.005Z,14.71
2017-07-26T02:22:21.006Z,14.75
2017-07-26T02:23:21.010Z,14.75
2017-07-26T02:24:21.017Z,14.77
2017-07-26T02:25:21.019Z,14.75
2017-07-26T02:26:21.019Z,14.78
2017-07-26T02:27:21.024Z,14.79
2017-07-26T02:28:21.027Z,14.74
2017-07-26T02:29:21.346Z,14.74
2017-07-26T02:30:21.032Z,14.72
2017-07-26T02:31:21.032Z,14.71
2017-07-26T02:32:21.035Z,14.71
2017-07-26T02:33:21.038Z,14.64
2017-07-26T02:34:21.042Z,14.64
2017-07-26T02:35:21.048Z,14.60
2017-07-26T02:36:21.052Z,14.58
2017-07-26T02:37:21.050Z,14.55
2017-07-26T02:38:21.049Z,14.57
2017-07-26T02:39:21.057Z,14.58
2017-07-26T02:40:21.059Z,14.60
2017-07-26T02:41:21.060Z,14.57
2017-07-26T02:42:21.064Z,14.56
2017-07-26T02:43:21.069Z,14.56
2017-07-26T02:44:21.074Z,14.53
2017-07-26T02:45:21.078Z,14.56
2017-07-26T02:46:21.076Z,14.56
2017-07-26T02:47:21.082Z,14.56
2017-07-26T02:48:21.081Z,14.60
2017-07-26T02:49:21.092Z,14.62
2017-07-26T02:50:21.088Z,14.61
2017-07-26T02:51:21.094Z,14.57
2017-07-26T02:52:21.095Z,14.55
2017-07-26T02:53:21.096Z,14.54
2017-07-26T02:54:21.099Z,14.56
2017-07-26T02:55:21.104Z,14.55
2017-07-26T02:56:21.107Z,14.55
2017-07-26T02:57:21.110Z,14.53
2017-07-26T02:58:21.113Z,14.48
2017-07-26T02:59:21.113Z,14.48
2017-07-26T03:00:21.117Z,14.52
2017-07-26T03:01:21.120Z,14.52
2017-07-26T03:02:21.126Z,14.51
2017-07-26T03:03:21.127Z,14.53
2017-07-26T03:04:21.127Z,14.54
2017-07-26T03:06:52.134Z,14.54
2017-07-26T03:06:54.820Z,14.51
2017-07-26T03:07:21.141Z,14.49
2017-07-26T03:08:21.145Z,14.47
2017-07-26T03:09:21.144Z,14.45
2017-07-26T03:10:21.146Z,14.45
2017-07-26T03:11:21.151Z,14.42
2017-07-26T03:12:21.153Z,14.43
2017-07-26T03:13:21.158Z,14.45
2017-07-26T03:14:21.158Z,14.43
2017-07-26T03:15:21.160Z,14.44
2017-07-26T03:16:21.165Z,14.40
2017-07-26T03:17:21.174Z,14.40
2017-07-26T03:18:21.168Z,14.40
2017-07-26T03:19:21.173Z,14.39
2017-07-26T03:20:21.175Z,14.38
2017-07-26T03:21:21.218Z,14.40
2017-07-26T03:22:21.178Z,14.35
2017-07-26T03:23:21.186Z,14.39
2017-07-26T03:24:21.186Z,14.40
2017-07-26T03:25:21.189Z,14.36
2017-07-26T03:26:21.194Z,14.41
2017-07-26T03:27:21.194Z,14.39
2017-07-26T03:28:21.202Z,14.44
2017-07-26T03:29:21.201Z,14.42
2017-07-26T03:30:21.205Z,14.42
2017-07-26T03:31:21.206Z,14.40
2017-07-26T03:32:21.211Z,14.40
2017-07-26T03:33:21.213Z,14.39
2017-07-26T03:34:21.218Z,14.38
2017-07-26T03:35:21.221Z,14.38
2017-07-26T03:36:21.222Z,14.38
2017-07-26T03:37:21.223Z,14.38
2017-07-26T03:38:21.230Z,14.38
2017-07-26T03:39:21.230Z,14.37
2017-07-26T03:40:21.233Z,14.38
2017-07-26T03:41:21.254Z,14.37
2017-07-26T03:42:21.264Z,14.36
2017-07-26T03:43:21.242Z,14.37
2017-07-26T03:44:21.276Z,14.35
2017-07-26T03:45:21.247Z,14.34
2017-07-26T03:46:21.250Z,14.36
2017-07-26T03:47:21.257Z,14.37
2017-07-26T03:48:21.257Z,14.34
2017-07-26T03:49:21.258Z,14.36
2017-07-26T03:50:21.264Z,14.38
2017-07-26T03:51:21.266Z,14.38
2017-07-26T03:52:21.269Z,14.36
2017-07-26T03:53:21.271Z,14.36
2017-07-26T03:54:21.275Z,14.39
2017-07-26T03:55:21.273Z,14.37
2017-07-26T03:56:21.280Z,14.38
2017-07-26T03:57:21.277Z,14.36
2017-07-26T03:58:21.285Z,14.37
2017-07-26T03:59:21.290Z,14.40
2017-07-26T04:00:21.292Z,14.42
2017-07-26T04:01:21.294Z,14.43
2017-07-26T04:02:21.325Z,14.44
2017-07-26T04:03:21.297Z,14.41
2017-07-26T04:04:21.304Z,14.40
2017-07-26T04:05:21.304Z,14.39
2017-07-26T04:06:21.310Z,14.38
2017-07-26T04:07:21.312Z,14.38
2017-07-26T04:08:21.319Z,14.39
2017-07-26T04:09:21.325Z,14.41
2017-07-26T04:10:21.322Z,14.37
2017-07-26T04:11:21.326Z,14.35
2017-07-26T04:12:21.326Z,14.40
2017-07-26T04:13:21.325Z,14.37
2017-07-26T04:14:21.330Z,14.36
2017-07-26T04:15:21.332Z,14.37
2017-07-26T04:16:21.342Z,14.39
2017-07-26T04:17:21.339Z,14.36
2017-07-26T04:18:21.342Z,14.39
2017-07-26T04:19:21.344Z,14.37
2017-07-26T04:20:21.348Z,14.38
2017-07-26T04:21:21.352Z,14.40
2017-07-26T04:22:21.362Z,14.40
2017-07-26T04:23:21.355Z,14.40
2017-07-26T04:24:21.359Z,14.42
2017-07-26T04:25:21.362Z,14.39
2017-07-26T04:26:21.365Z,14.35
2017-07-26T04:27:21.372Z,14.34
2017-07-26T04:28:21.378Z,14.32
2017-07-26T04:29:21.370Z,14.34
2017-07-26T04:30:21.583Z,14.36
2017-07-26T04:31:21.379Z,14.37
2017-07-26T04:32:21.384Z,14.36
2017-07-26T04:33:21.383Z,14.38
2017-07-26T04:34:21.391Z,14.35
2017-07-26T04:35:21.390Z,14.37
2017-07-26T04:36:21.397Z,14.37
2017-07-26T04:37:21.398Z,14.39
2017-07-26T04:38:21.402Z,14.39
2017-07-26T04:39:21.958Z,14.40
2017-07-26T04:40:21.405Z,14.41
2017-07-26T04:41:21.410Z,14.41
2017-07-26T04:42:21.423Z,14.43
2017-07-26T04:43:21.412Z,14.42
2017-07-26T04:44:21.416Z,14.43
2017-07-26T04:45:21.419Z,14.44
2017-07-26T04:46:21.426Z,14.45
2017-07-26T04:47:21.429Z,14.43
2017-07-26T04:48:21.428Z,14.39
2017-07-26T04:49:21.431Z,14.44
2017-07-26T04:50:21.430Z,14.45
2017-07-26T04:51:21.436Z,14.44
2017-07-26T04:52:21.440Z,14.46
2017-07-26T04:53:21.441Z,14.46
2017-07-26T04:54:21.446Z,14.48
2017-07-26T04:55:21.451Z,14.51
2017-07-26T04:56:21.449Z,14.51
2017-07-26T04:57:21.450Z,14.52
2017-07-26T04:58:21.452Z,14.52
2017-07-26T04:59:21.459Z,14.53
2017-07-26T05:00:21.472Z,14.54
2017-07-26T05:01:21.464Z,14.54
2017-07-26T05:02:21.465Z,14.57
2017-07-26T05:03:21.478Z,14.57
2017-07-26T05:04:21.480Z,14.53
2017-07-26T05:05:21.483Z,14.52
2017-07-26T05:06:21.475Z,14.53
2017-07-26T05:07:21.481Z,14.52
2017-07-26T05:08:21.484Z,14.52
2017-07-26T05:09:21.489Z,14.53
2017-07-26T05:10:21.488Z,14.53
2017-07-26T05:11:22.903Z,14.56
2017-07-26T05:12:21.493Z,14.58
2017-07-26T05:13:21.502Z,14.59
2017-07-26T05:14:21.501Z,14.61
2017-07-26T05:15:21.507Z,14.58
2017-07-26T05:16:21.514Z,14.60
2017-07-26T05:17:21.514Z,14.61
2017-07-26T05:18:21.527Z,14.62
2017-07-26T05:19:21.517Z,14.64
2017-07-26T05:20:21.524Z,14.68
2017-07-26T05:21:21.523Z,14.66
2017-07-26T05:22:21.529Z,14.66
2017-07-26T05:23:21.530Z,14.59
2017-07-26T05:24:21.531Z,14.60
2017-07-26T05:25:21.535Z,14.59
2017-07-26T05:26:21.540Z,14.59
2017-07-26T05:27:21.543Z,14.60
2017-07-26T05:28:21.545Z,14.64
2017-07-26T05:29:21.546Z,14.67
2017-07-26T05:30:21.547Z,14.66
2017-07-26T05:31:21.548Z,14.64
2017-07-26T05:32:21.559Z,14.65
2017-07-26T05:33:21.557Z,14.61
2017-07-26T05:34:21.563Z,14.64
2017-07-26T05:35:21.569Z,14.69
2017-07-26T05:36:21.569Z,14.70
2017-07-26T05:37:21.569Z,14.72
2017-07-26T05:38:21.587Z,14.73
2017-07-26T05:39:21.574Z,14.75
2017-07-26T05:40:21.577Z,14.75
2017-07-26T05:41:21.581Z,14.75
2017-07-26T05:42:21.586Z,14.71
2017-07-26T05:43:21.585Z,14.67
2017-07-26T05:44:21.592Z,14.67
2017-07-26T05:45:21.887Z,14.68
2017-07-26T05:46:21.598Z,14.72
2017-07-26T05:47:21.597Z,14.74
2017-07-26T05:48:21.600Z,14.74
2017-07-26T05:49:21.602Z,14.71
2017-07-26T05:50:21.605Z,14.72
2017-07-26T05:51:21.612Z,14.78
2017-07-26T05:52:21.616Z,14.80
2017-07-26T05:53:21.686Z,14.79
2017-07-26T05:54:21.624Z,14.78
2017-07-26T05:55:21.622Z,14.74
2017-07-26T05:56:21.626Z,14.74
2017-07-26T05:57:21.627Z,14.73
2017-07-26T05:58:21.636Z,14.73
2017-07-26T05:59:21.632Z,14.73
2017-07-26T06:00:21.632Z,14.72
2017-07-26T06:01:21.639Z,14.69
2017-07-26T06:02:21.642Z,14.73
2017-07-26T06:03:21.647Z,14.76
2017-07-26T06:04:21.647Z,14.74
2017-07-26T06:05:21.651Z,14.75
2017-07-26T06:06:21.664Z,14.73
2017-07-26T06:07:21.656Z,14.72
2017-07-26T06:08:21.659Z,14.71
2017-07-26T06:09:21.665Z,14.73
2017-07-26T06:10:21.665Z,14.74
2017-07-26T06:11:21.671Z,14.71
2017-07-26T06:12:21.671Z,14.74
2017-07-26T06:13:21.674Z,14.74
2017-07-26T06:14:21.677Z,14.74
2017-07-26T06:15:21.681Z,14.77
2017-07-26T06:16:21.687Z,14.76
2017-07-26T06:17:21.682Z,14.77
2017-07-26T06:18:21.688Z,14.76
2017-07-26T06:19:21.686Z,14.78
2017-07-26T06:20:21.695Z,14.78
2017-07-26T06:21:21.694Z,14.76
2017-07-26T06:22:21.698Z,14.74
2017-07-26T06:23:21.701Z,14.73
2017-07-26T06:24:21.704Z,14.76
2017-07-26T06:25:21.704Z,14.78
2017-07-26T06:26:21.711Z,14.81
2017-07-26T06:27:21.712Z,14.81
2017-07-26T06:28:21.719Z,14.84
2017-07-26T06:29:21.718Z,14.85
2017-07-26T06:30:22.227Z,14.84
2017-07-26T06:31:21.725Z,14.86
2017-07-26T06:32:21.726Z,14.88
2017-07-26T06:33:21.733Z,14.91
2017-07-26T06:34:21.732Z,14.92
2017-07-26T06:35:21.738Z,14.95
2017-07-26T06:36:21.739Z,14.99
2017-07-26T06:37:21.744Z,14.99
2017-07-26T06:38:21.749Z,14.99
2017-07-26T06:39:21.747Z,15.02
2017-07-26T06:40:21.750Z,15.01
2017-07-26T06:41:21.749Z,15.03
2017-07-26T06:42:21.755Z,15.02
2017-07-26T06:43:21.762Z,15.03
2017-07-26T06:44:21.770Z,15.05
2017-07-26T06:45:21.766Z,15.02
2017-07-26T06:46:21.778Z,15.01
2017-07-26T06:47:21.777Z,15.00
2017-07-26T06:48:21.776Z,15.01
2017-07-26T06:49:21.775Z,15.03
2017-07-26T06:50:21.775Z,15.00
2017-07-26T06:51:21.781Z,14.98
2017-07-26T06:52:21.783Z,14.94
2017-07-26T06:53:21.792Z,14.94
2017-07-26T06:54:21.795Z,14.95
2017-07-26T06:55:21.793Z,14.96
2017-07-26T06:56:21.792Z,14.98
2017-07-26T06:57:21.801Z,14.98
2017-07-26T06:58:21.800Z,14.96
2017-07-26T06:59:21.806Z,14.95
2017-07-26T07:00:21.807Z,14.95
2017-07-26T07:01:21.809Z,14.95
2017-07-26T07:02:21.814Z,14.96
2017-07-26T07:03:21.814Z,14.96
2017-07-26T07:04:21.815Z,15.01
2017-07-26T07:05:21.817Z,14.99
2017-07-26T07:06:21.821Z,15.01
2017-07-26T07:07:21.840Z,15.04
2017-07-26T07:08:21.846Z,15.04
2017-07-26T07:09:21.832Z,15.08
2017-07-26T07:10:21.833Z,15.10
2017-07-26T07:11:21.837Z,15.13
2017-07-26T07:12:21.844Z,15.16
2017-07-26T07:13:21.843Z,15.13
2017-07-26T07:14:21.847Z,15.11
2017-07-26T07:15:21.852Z,15.13
2017-07-26T07:16:21.850Z,15.16
2017-07-26T07:17:21.856Z,15.20
2017-07-26T07:18:21.862Z,15.22
2017-07-26T07:19:21.860Z,15.21
2017-07-26T07:20:21.861Z,15.25
2017-07-26T07:21:21.863Z,15.29
2017-07-26T07:22:21.873Z,15.31
2017-07-26T07:23:21.875Z,15.31
2017-07-26T07:24:21.880Z,15.32
2017-07-26T07:25:21.881Z,15.34
2017-07-26T07:26:21.882Z,15.35
2017-07-26T07:27:21.890Z,15.38
2017-07-26T07:28:21.887Z,15.40
2017-07-26T07:29:21.889Z,15.44
2017-07-26T07:30:21.893Z,15.47
2017-07-26T07:31:21.902Z,15.43
2017-07-26T07:32:21.895Z,15.42
2017-07-26T07:33:21.906Z,15.45
2017-07-26T07:34:21.906Z,15.47
2017-07-26T07:35:21.904Z,15.46
2017-07-26T07:36:21.948Z,15.49
2017-07-26T07:37:21.912Z,15.50
2017-07-26T07:38:21.913Z,15.51
2017-07-26T07:39:21.918Z,15.49
2017-07-26T07:40:21.922Z,15.48
2017-07-26T07:41:21.924Z,15.48
2017-07-26T07:42:21.928Z,15.46
2017-07-26T07:43:21.933Z,15.45
2017-07-26T07:44:21.932Z,15.48
2017-07-26T07:45:21.941Z,15.48
2017-07-26T07:46:21.943Z,15.50
2017-07-26T07:47:21.945Z,15.47
2017-07-26T07:48:21.942Z,15.48
2017-07-26T07:49:21.949Z,15.50
2017-07-26T07:50:21.950Z,15.53
2017-07-26T07:51:21.952Z,15.56
2017-07-26T07:52:21.958Z,15.56
2017-07-26T07:53:21.958Z,15.53
2017-07-26T07:54:21.961Z,15.54
2017-07-26T07:55:21.965Z,15.54
2017-07-26T07:56:21.967Z,15.55
2017-07-26T07:57:21.970Z,15.55
2017-07-26T07:58:22.001Z,15.56
2017-07-26T07:59:21.980Z,15.55
2017-07-26T08:00:21.988Z,15.54
2017-07-26T08:01:21.984Z,15.55
2017-07-26T08:02:21.982Z,15.56
2017-07-26T08:03:21.985Z,15.48
2017-07-26T08:04:21.991Z,15.47
2017-07-26T08:05:21.997Z,15.49
2017-07-26T08:06:21.995Z,15.50
2017-07-26T08:07:22.005Z,15.50
2017-07-26T08:08:22.002Z,15.50
2017-07-26T08:09:22.003Z,15.52
2017-07-26T08:10:22.041Z,15.50
2017-07-26T08:11:22.009Z,15.50
2017-07-26T08:12:22.017Z,15.50
2017-07-26T08:13:22.017Z,15.52
2017-07-26T08:14:22.020Z,15.50
2017-07-26T08:15:22.029Z,15.51
2017-07-26T08:16:22.025Z,15.51
2017-07-26T08:17:22.027Z,15.51
2017-07-26T08:18:22.030Z,15.49
2017-07-26T08:19:22.032Z,15.50
2017-07-26T08:20:22.034Z,15.50
2017-07-26T08:21:22.041Z,15.51
2017-07-26T08:22:22.044Z,15.49
2017-07-26T08:23:22.045Z,15.51
2017-07-26T08:24:22.049Z,15.52
2017-07-26T08:25:22.050Z,15.54
2017-07-26T08:26:22.051Z,15.58
2017-07-26T08:27:22.057Z,15.56
2017-07-26T08:28:22.069Z,15.54
2017-07-26T08:29:22.061Z,15.54
2017-07-26T08:30:22.070Z,15.52
2017-07-26T08:31:22.072Z,15.53
2017-07-26T08:32:22.073Z,15.49
2017-07-26T08:33:22.076Z,15.48
2017-07-26T08:34:22.076Z,15.52
2017-07-26T08:35:22.083Z,15.54
2017-07-26T08:36:22.082Z,15.56
2017-07-26T08:37:22.087Z,15.61
2017-07-26T08:38:22.090Z,15.62
2017-07-26T08:39:22.094Z,15.65
2017-07-26T08:40:22.096Z,15.68
2017-07-26T08:41:22.098Z,15.72
2017-07-26T08:42:22.099Z,15.72
2017-07-26T08:43:22.105Z,15.72
2017-07-26T08:44:22.111Z,15.73
2017-07-26T08:45:22.126Z,15.77
2017-07-26T08:46:22.116Z,15.79
2017-07-26T08:47:22.116Z,15.83
2017-07-26T08:48:22.119Z,15.86
2017-07-26T08:49:22.123Z,15.90
2017-07-26T08:50:22.129Z,15.89
2017-07-26T08:52:04.259Z,15.91
2017-07-26T08:52:06.052Z,15.91
2017-07-26T08:52:22.130Z,15.95
2017-07-26T08:53:22.130Z,16.01
2017-07-26T08:54:22.134Z,16.05
2017-07-26T08:55:22.137Z,16.04
2017-07-26T08:56:22.144Z,16.01
2017-07-26T08:57:22.189Z,16.01
2017-07-26T08:58:22.149Z,16.05
2017-07-26T08:59:22.151Z,16.01
2017-07-26T09:00:22.153Z,16.04
2017-07-26T09:01:22.154Z,16.09
2017-07-26T09:02:22.176Z,16.10
2017-07-26T09:03:22.159Z,16.12
2017-07-26T09:04:22.162Z,16.18
2017-07-26T09:05:22.165Z,16.20
2017-07-26T09:06:22.169Z,16.20
2017-07-26T09:07:22.171Z,16.22
2017-07-26T09:08:22.176Z,16.22
2017-07-26T09:09:22.176Z,16.22
2017-07-26T09:10:22.179Z,16.26
2017-07-26T09:11:22.186Z,16.27
2017-07-26T09:12:22.185Z,16.27
2017-07-26T09:13:22.190Z,16.30
2017-07-26T09:14:22.194Z,16.32
2017-07-26T09:15:22.195Z,16.30
2017-07-26T09:16:22.201Z,16.29
2017-07-26T09:17:22.199Z,16.26
2017-07-26T09:18:22.208Z,16.25
2017-07-26T09:19:22.205Z,16.25
2017-07-26T09:20:22.217Z,16.23
2017-07-26T09:21:22.211Z,16.25
2017-07-26T09:22:22.226Z,16.22
2017-07-26T09:23:22.218Z,16.20
2017-07-26T09:24:22.221Z,16.18
2017-07-26T09:25:22.224Z,16.16
2017-07-26T09:26:22.233Z,16.12
2017-07-26T09:27:22.229Z,16.14
2017-07-26T09:28:22.232Z,16.15
2017-07-26T09:29:22.275Z,16.17
2017-07-26T09:30:22.238Z,16.13
2017-07-26T09:31:22.243Z,16.12
2017-07-26T09:32:22.242Z,16.10
2017-07-26T09:33:22.268Z,16.09
2017-07-26T09:34:22.251Z,16.08
2017-07-26T09:35:22.304Z,16.04
2017-07-26T09:36:22.254Z,16.06
2017-07-26T09:37:22.293Z,16.06
2017-07-26T09:38:22.264Z,16.04
2017-07-26T09:39:22.265Z,16.04
2017-07-26T09:40:22.265Z,16.02
2017-07-26T09:41:22.282Z,16.04
2017-07-26T09:42:22.273Z,16.07
2017-07-26T09:43:22.279Z,16.10
2017-07-26T09:44:22.282Z,16.11
2017-07-26T09:45:22.287Z,16.15
2017-07-26T09:46:22.291Z,16.14
2017-07-26T09:47:22.284Z,16.15
2017-07-26T09:48:22.290Z,16.15
2017-07-26T09:49:22.291Z,16.19
2017-07-26T09:50:22.298Z,16.17
2017-07-26T09:51:22.297Z,16.18
2017-07-26T09:52:22.299Z,16.19
2017-07-26T09:53:22.302Z,16.23
2017-07-26T09:54:22.307Z,16.27
2017-07-26T09:55:22.317Z,16.26
2017-07-26T09:56:22.312Z,16.30
2017-07-26T09:57:22.320Z,16.34
2017-07-26T09:58:22.318Z,16.32
2017-07-26T09:59:22.320Z,16.31
2017-07-26T10:00:22.326Z,16.31
2017-07-26T10:01:22.326Z,16.28
2017-07-26T10:02:22.328Z,16.28
2017-07-26T10:03:22.331Z,16.30
2017-07-26T10:04:22.351Z,16.34
2017-07-26T10:05:22.338Z,16.37
2017-07-26T10:06:22.344Z,16.36
2017-07-26T10:07:22.346Z,16.36
2017-07-26T10:08:22.346Z,16.37
2017-07-26T10:09:22.350Z,16.36
2017-07-26T10:10:22.389Z,16.33
2017-07-26T10:11:22.354Z,16.31
2017-07-26T10:12:22.355Z,16.34
2017-07-26T10:13:22.363Z,16.31
2017-07-26T10:14:22.365Z,16.35
2017-07-26T10:15:22.374Z,16.35
2017-07-26T10:16:22.368Z,16.33
2017-07-26T10:17:22.371Z,16.33
2017-07-26T10:18:22.376Z,16.31
2017-07-26T10:19:22.380Z,16.31
2017-07-26T10:20:22.385Z,16.34
2017-07-26T10:21:22.388Z,16.35
2017-07-26T10:22:22.406Z,16.34
2017-07-26T10:23:22.415Z,16.29
2017-07-26T10:24:22.402Z,16.32
2017-07-26T10:25:22.446Z,16.31
2017-07-26T10:26:22.400Z,16.34
2017-07-26T10:27:22.426Z,16.33
2017-07-26T10:28:22.442Z,16.25
2017-07-26T10:29:22.406Z,16.25
2017-07-26T10:30:22.418Z,16.25
2017-07-26T10:31:22.417Z,16.23
2017-07-26T10:32:22.418Z,16.18
2017-07-26T10:33:22.418Z,16.11
2017-07-26T10:34:22.419Z,16.10
2017-07-26T10:35:22.426Z,16.10
2017-07-26T10:36:22.430Z,16.10
2017-07-26T10:37:22.428Z,16.08
2017-07-26T10:38:22.442Z,16.07
2017-07-26T10:39:22.439Z,16.07
2017-07-26T10:40:22.443Z,16.12
2017-07-26T10:41:22.446Z,16.16
2017-07-26T10:42:22.443Z,16.17
2017-07-26T10:43:22.449Z,16.16
2017-07-26T10:44:22.452Z,16.17
2017-07-26T10:45:22.738Z,16.20
2017-07-26T10:46:22.544Z,16.15
2017-07-26T10:47:22.458Z,16.14
2017-07-26T10:48:22.463Z,16.09
2017-07-26T10:49:22.465Z,16.06
2017-07-26T10:50:22.466Z,16.06
2017-07-26T10:51:22.469Z,16.08
2017-07-26T10:52:22.473Z,16.09
2017-07-26T10:53:22.475Z,16.09
2017-07-26T10:54:22.481Z,16.05
2017-07-26T10:55:22.482Z,16.06
2017-07-26T10:56:22.485Z,16.04
2017-07-26T10:57:22.492Z,16.03
2017-07-26T10:58:22.491Z,16.04
2017-07-26T10:59:22.499Z,16.03
2017-07-26T11:00:22.732Z,16.00
2017-07-26T11:01:22.502Z,15.99
2017-07-26T11:02:22.499Z,15.96
2017-07-26T11:03:22.506Z,15.92
2017-07-26T11:04:22.517Z,15.91
2017-07-26T11:05:22.621Z,15.91
2017-07-26T11:06:22.516Z,15.91
2017-07-26T11:07:22.517Z,15.90
2017-07-26T11:08:22.522Z,15.87
2017-07-26T11:09:22.611Z,15.84
2017-07-26T11:10:22.526Z,15.87
2017-07-26T11:11:22.529Z,15.89
2017-07-26T11:12:22.585Z,15.90
2017-07-26T11:13:22.536Z,15.91
2017-07-26T11:14:22.579Z,15.90
2017-07-26T11:15:22.690Z,15.94
2017-07-26T11:16:22.544Z,15.94
2017-07-26T11:17:22.560Z,15.94
2017-07-26T11:18:22.550Z,15.92
2017-07-26T11:19:22.548Z,15.92
2017-07-26T11:20:22.575Z,15.91
2017-07-26T11:21:22.556Z,15.89
2017-07-26T11:22:22.563Z,15.88
2017-07-26T11:23:22.561Z,15.89
2017-07-26T11:24:22.651Z,15.91
2017-07-26T11:25:22.567Z,15.94
2017-07-26T11:26:22.659Z,15.90
2017-07-26T11:27:22.622Z,15.91
2017-07-26T11:28:22.579Z,15.92
2017-07-26T11:29:22.579Z,15.94
2017-07-26T11:30:22.592Z,15.97
2017-07-26T11:31:22.590Z,15.97
2017-07-26T11:32:22.598Z,15.96
2017-07-26T11:33:22.593Z,15.97
2017-07-26T11:34:22.593Z,15.96
2017-07-26T11:35:22.596Z,16.02
2017-07-26T11:36:22.601Z,16.05
2017-07-26T11:37:22.604Z,16.04
2017-07-26T11:38:22.607Z,16.07
2017-07-26T11:39:22.686Z,16.07
2017-07-26T11:40:22.623Z,16.08
2017-07-26T11:41:22.624Z,16.10
2017-07-26T11:42:22.635Z,16.14
2017-07-26T11:43:22.620Z,16.14
2017-07-26T11:44:22.624Z,16.13
2017-07-26T11:45:22.626Z,16.09
2017-07-26T11:46:22.630Z,16.12
2017-07-26T11:47:22.633Z,16.15
2017-07-26T11:48:22.645Z,16.13
2017-07-26T11:49:22.637Z,16.11
2017-07-26T11:50:22.646Z,16.13
2017-07-26T11:51:22.648Z,16.15
2017-07-26T11:52:22.653Z,16.20
2017-07-26T11:53:22.655Z,16.24
2017-07-26T11:54:22.688Z,16.29
2017-07-26T11:55:22.663Z,16.32
2017-07-26T11:56:22.662Z,16.31
2017-07-26T11:57:22.665Z,16.26
2017-07-26T11:58:22.662Z,16.24
2017-07-26T11:59:22.665Z,16.27
2017-07-26T12:00:22.670Z,16.26
2017-07-26T12:01:22.671Z,16.25
2017-07-26T12:02:22.678Z,16.27
2017-07-26T12:03:22.686Z,16.30
2017-07-26T12:04:22.680Z,16.31
2017-07-26T12:05:22.685Z,16.32
2017-07-26T12:06:22.690Z,16.33
2017-07-26T12:07:22.693Z,16.34
2017-07-26T12:08:22.697Z,16.33
2017-07-26T12:09:22.696Z,16.28
2017-07-26T12:10:22.699Z,16.24
2017-07-26T12:11:22.705Z,16.25
2017-07-26T12:12:22.709Z,16.28
2017-07-26T12:13:22.702Z,16.29
2017-07-26T12:14:22.712Z,16.29
2017-07-26T12:15:22.713Z,16.32
2017-07-26T12:16:22.717Z,16.30
2017-07-26T12:17:22.721Z,16.32
2017-07-26T12:18:22.724Z,16.34
2017-07-26T12:19:22.727Z,16.38
2017-07-26T12:20:22.727Z,16.39
2017-07-26T12:21:22.734Z,16.45
2017-07-26T12:22:22.734Z,16.45
2017-07-26T12:23:22.743Z,16.46
2017-07-26T12:24:22.740Z,16.51
2017-07-26T12:25:22.747Z,16.53
2017-07-26T12:26:22.747Z,16.51
2017-07-26T12:27:22.751Z,16.42
2017-07-26T12:28:22.751Z,16.42
2017-07-26T12:29:22.759Z,16.43
2017-07-26T12:30:22.752Z,16.46
2017-07-26T12:31:22.758Z,16.48
2017-07-26T12:32:22.761Z,16.48
2017-07-26T12:33:22.761Z,16.48
2017-07-26T12:34:22.767Z,16.51
2017-07-26T12:35:22.770Z,16.48
2017-07-26T12:36:22.958Z,16.49
2017-07-26T12:37:22.774Z,16.53
2017-07-26T12:38:22.775Z,16.56
2017-07-26T12:39:22.779Z,16.59
2017-07-26T12:40:22.783Z,16.61
2017-07-26T12:41:22.787Z,16.60
2017-07-26T12:42:22.790Z,16.63
2017-07-26T12:43:22.796Z,16.65
2017-07-26T12:44:22.794Z,16.61
2017-07-26T12:45:22.798Z,16.60
2017-07-26T12:46:22.799Z,16.54
2017-07-26T12:47:22.803Z,16.60
2017-07-26T12:48:22.807Z,16.61
2017-07-26T12:49:22.811Z,16.63
2017-07-26T12:50:22.813Z,16.67
2017-07-26T12:51:22.818Z,16.69